Terminal Aerodrome Forecast
Issued by NWS Chicago, IL

Home | Current Version | Previous Version | Graphics & Text | Print | Product List | Glossary On
Versions: 1 2 3 4 5 6 7 8 9 10 11 12 13 14 15 16 17 18 19 20 21 22 23 24 25 26 27 28 29
065
FTUS43 KLOT 192324
TAFRFD
TAF
KRFD 192324Z 2000/2024 16013KT P6SM BKN250
     FM200400 18010KT P6SM BKN050
     FM200700 19007KT P6SM VCTS OVC035CB
     FM201000 19005KT 5SM BR VCSH OVC015
     FM201400 28004KT 3SM BR VCSH OVC007
     FM201800 01010KT P6SM OVC008
     FM202200 03008KT P6SM BKN015=

USA.gov is the U.S. government's official web portal to all federal, state and local government web resources and services.